createdAt,value
2022-12-08T00:01:59.480Z,97148.73
2022-12-08T00:04:27.457Z,97145.86
2022-12-08T00:07:14.019Z,97146.20
2022-12-08T00:09:42.073Z,97141.73
2022-12-08T00:12:15.417Z,97140.17
2022-12-08T00:14:47.056Z,97144.31
2022-12-08T00:17:15.887Z,97146.98
2022-12-08T00:19:44.136Z,97147.70
2022-12-08T00:22:12.783Z,97149.73
2022-12-08T00:24:41.330Z,97154.20
2022-12-08T00:27:10.565Z,97153.94
2022-12-08T00:29:38.871Z,97156.84
2022-12-08T00:32:06.771Z,97163.11
2022-12-08T00:34:34.560Z,97164.24
2022-12-08T00:37:02.379Z,97167.10
2022-12-08T00:39:30.246Z,97165.96
2022-12-08T00:42:13.540Z,97170.19
2022-12-08T00:44:42.833Z,97171.26
2022-12-08T00:47:11.516Z,97174.23
2022-12-08T00:49:39.478Z,97181.64
2022-12-08T00:52:07.656Z,97185.58
2022-12-08T00:54:35.407Z,97184.95
2022-12-08T00:57:03.251Z,97185.92
2022-12-08T00:59:30.948Z,97184.65
2022-12-08T01:01:59.107Z,97182.16
2022-12-08T01:04:26.880Z,97184.15
2022-12-08T01:06:54.814Z,97184.36
2022-12-08T01:09:22.590Z,97181.85
2022-12-08T01:11:50.484Z,97182.13
2022-12-08T01:14:18.369Z,97179.98
2022-12-08T01:16:46.186Z,97185.70
2022-12-08T01:19:14.921Z,97192.02
2022-12-08T01:21:43.365Z,97189.59
2022-12-08T01:24:15.467Z,97191.52
2022-12-08T01:26:43.575Z,97191.09
2022-12-08T01:29:11.502Z,97189.84
2022-12-08T01:31:39.854Z,97190.38
2022-12-08T01:34:08.592Z,97181.64
2022-12-08T01:36:37.301Z,97178.09
2022-12-08T01:39:07.139Z,97177.30
2022-12-08T01:41:36.132Z,97180.02
2022-12-08T01:44:08.344Z,97183.56
2022-12-08T01:46:38.071Z,97185.90
2022-12-08T01:49:12.622Z,97187.30
2022-12-08T01:51:44.251Z,97191.30
2022-12-08T01:54:12.582Z,97191.40
2022-12-08T01:56:50.639Z,97191.05
2022-12-08T01:59:19.355Z,97199.36
2022-12-08T02:01:47.163Z,97199.05
2022-12-08T02:04:14.916Z,97203.64
2022-12-08T02:06:44.695Z,97207.10
2022-12-08T02:09:12.911Z,97202.88
2022-12-08T02:11:40.679Z,97202.31
2022-12-08T02:14:11.605Z,97208.02
2022-12-08T02:16:49.349Z,97205.30
2022-12-08T02:19:32.577Z,97208.30
2022-12-08T02:22:00.351Z,97207.60
2022-12-08T02:24:28.152Z,97205.89
2022-12-08T02:27:31.318Z,97209.61
2022-12-08T02:29:59.133Z,97203.48
2022-12-08T02:33:05.607Z,97201.84
2022-12-08T02:35:42.159Z,97202.65
2022-12-08T02:38:25.269Z,97205.34
2022-12-08T02:41:12.212Z,97207.95
2022-12-08T02:43:45.369Z,97202.45
2022-12-08T02:46:19.582Z,97203.49
2022-12-08T02:48:47.947Z,97210.61
2022-12-08T02:51:15.637Z,97214.39
2022-12-08T02:53:43.863Z,97217.53
2022-12-08T02:56:11.526Z,97209.38
2022-12-08T02:58:52.736Z,97206.70
2022-12-08T03:01:32.807Z,97207.41
2022-12-08T03:04:08.772Z,97209.48
2022-12-08T03:06:48.943Z,97208.64
2022-12-08T03:09:19.838Z,97205.27
2022-12-08T03:11:52.221Z,97203.88
2022-12-08T03:14:21.479Z,97206.43
2022-12-08T03:16:51.179Z,97211.60
2022-12-08T03:19:21.367Z,97212.57
2022-12-08T03:21:51.854Z,97204.98
2022-12-08T03:24:22.181Z,97201.70
2022-12-08T03:26:58.649Z,97201.88
2022-12-08T03:29:26.432Z,97201.30
2022-12-08T03:31:56.241Z,97201.80
2022-12-08T03:34:26.218Z,97201.70
2022-12-08T03:36:53.966Z,97207.14
2022-12-08T03:39:21.703Z,97205.80
2022-12-08T03:41:49.507Z,97200.94
2022-12-08T03:44:17.159Z,97205.95
2022-12-08T03:46:45.853Z,97204.75
2022-12-08T03:49:13.596Z,97206.64
2022-12-08T03:51:41.311Z,97207.67
2022-12-08T03:54:09.001Z,97207.16
2022-12-08T03:56:37.711Z,97207.43
2022-12-08T03:59:06.556Z,97201.86
2022-12-08T04:01:34.350Z,97205.36
2022-12-08T04:04:02.564Z,97202.28
2022-12-08T04:06:30.349Z,97202.80
2022-12-08T04:08:58.075Z,97202.42
2022-12-08T04:11:25.823Z,97206.54
2022-12-08T04:13:53.579Z,97204.95
2022-12-08T04:16:24.071Z,97207.23
2022-12-08T04:18:52.899Z,97207.81
2022-12-08T04:21:20.761Z,97208.23
2022-12-08T04:23:49.225Z,97203.54
2022-12-08T04:26:17.488Z,97203.79
2022-12-08T04:28:45.285Z,97200.53
2022-12-08T04:31:13.013Z,97199.38
2022-12-08T04:33:40.844Z,97196.68
2022-12-08T04:36:09.313Z,97201.66
2022-12-08T04:38:37.076Z,97197.68
2022-12-08T04:41:04.827Z,97193.42
2022-12-08T04:43:32.553Z,97188.25
2022-12-08T04:46:00.306Z,97190.77
2022-12-08T04:48:28.059Z,97191.42
2022-12-08T04:50:55.871Z,97194.85
2022-12-08T04:53:23.621Z,97194.00
2022-12-08T04:55:51.328Z,97191.97
2022-12-08T04:58:19.884Z,97191.39
2022-12-08T05:00:47.899Z,97188.12
2022-12-08T05:03:15.771Z,97190.17
2022-12-08T05:05:43.858Z,97193.16
2022-12-08T05:08:11.665Z,97196.47
2022-12-08T05:10:39.526Z,97201.67
2022-12-08T05:13:07.529Z,97201.84
2022-12-08T05:15:35.290Z,97200.09
2022-12-08T05:18:05.223Z,97198.89
2022-12-08T05:20:33.123Z,97204.48
2022-12-08T05:23:00.938Z,97210.12
2022-12-08T05:25:28.721Z,97214.31
2022-12-08T05:28:17.733Z,97212.94
2022-12-08T05:30:44.229Z,97216.38
2022-12-08T05:33:11.954Z,97219.39
2022-12-08T05:35:39.865Z,97217.76
2022-12-08T05:38:07.630Z,97218.21
2022-12-08T05:40:37.255Z,97219.02
2022-12-08T05:43:05.135Z,97222.16
2022-12-08T05:45:33.649Z,97222.29
2022-12-08T05:48:01.983Z,97228.61
2022-12-08T05:50:29.824Z,97227.70
2022-12-08T05:52:57.579Z,97227.16
2022-12-08T05:55:25.283Z,97224.98
2022-12-08T05:57:53.014Z,97220.78
2022-12-08T06:00:21.474Z,97221.05
2022-12-08T06:02:49.247Z,97227.52
2022-12-08T06:05:17.108Z,97232.02
2022-12-08T06:07:44.951Z,97232.05
2022-12-08T06:10:13.005Z,97230.88
2022-12-08T06:12:40.847Z,97233.71
2022-12-08T06:15:08.885Z,97231.45
2022-12-08T06:17:36.673Z,97236.10
2022-12-08T06:20:05.054Z,97239.59
2022-12-08T06:22:33.139Z,97238.95
2022-12-08T06:25:00.867Z,97237.50
2022-12-08T06:27:28.586Z,97242.16
2022-12-08T06:29:56.517Z,97238.85
2022-12-08T06:32:27.539Z,97247.64
2022-12-08T06:34:55.617Z,97244.50
2022-12-08T06:37:23.417Z,97242.33
2022-12-08T06:39:52.062Z,97241.11
2022-12-08T06:42:38.585Z,97238.42
2022-12-08T06:45:06.942Z,97243.60
2022-12-08T06:47:35.045Z,97250.42
2022-12-08T06:50:03.724Z,97250.81
2022-12-08T06:52:31.733Z,97250.91
2022-12-08T06:54:59.515Z,97246.94
2022-12-08T06:57:27.319Z,97248.48
2022-12-08T06:59:55.254Z,97246.67
2022-12-08T07:02:23.040Z,97249.14
2022-12-08T07:04:51.560Z,97251.96
2022-12-08T07:07:19.319Z,97250.59
2022-12-08T07:09:47.117Z,97260.27
2022-12-08T07:12:14.903Z,97265.27
2022-12-08T07:14:42.596Z,97268.98
2022-12-08T07:17:10.389Z,97269.15
2022-12-08T07:19:38.167Z,97261.87
2022-12-08T07:22:06.021Z,97263.77
2022-12-08T07:24:33.783Z,97268.59
2022-12-08T07:27:01.606Z,97268.98
2022-12-08T07:29:29.373Z,97269.27
2022-12-08T07:31:57.241Z,97267.93
2022-12-08T07:34:27.179Z,97269.54
2022-12-08T07:36:54.979Z,97266.67
2022-12-08T07:39:22.787Z,97266.11
2022-12-08T07:41:50.723Z,97264.40
2022-12-08T07:44:18.437Z,97267.23
2022-12-08T07:46:46.314Z,97270.46
2022-12-08T07:49:14.182Z,97266.98
2022-12-08T07:51:41.940Z,97273.13
2022-12-08T07:54:12.889Z,97269.20
2022-12-08T07:56:40.666Z,97265.78
2022-12-08T07:59:08.437Z,97271.81
2022-12-08T08:01:36.406Z,97272.09
2022-12-08T08:04:05.355Z,97270.98
2022-12-08T08:06:34.844Z,97281.23
2022-12-08T08:09:02.605Z,97276.55
2022-12-08T08:11:30.439Z,97276.13
2022-12-08T08:13:58.276Z,97280.23
2022-12-08T08:16:26.164Z,97275.32
2022-12-08T08:18:54.103Z,97281.02
2022-12-08T08:21:45.011Z,97284.54
2022-12-08T08:24:09.968Z,97282.27
2022-12-08T08:26:37.757Z,97280.48
2022-12-08T08:29:05.562Z,97279.69
2022-12-08T08:31:33.437Z,97282.45
2022-12-08T08:34:06.294Z,97279.13
2022-12-08T08:36:34.292Z,97270.79
2022-12-08T08:39:02.506Z,97272.84
2022-12-08T08:41:30.287Z,97266.98
2022-12-08T08:43:57.945Z,97264.92
2022-12-08T08:46:25.825Z,97266.36
2022-12-08T08:48:53.692Z,97264.34
2022-12-08T08:51:21.554Z,97261.60
2022-12-08T08:53:49.483Z,97261.48
2022-12-08T08:56:19.392Z,97256.61
2022-12-08T08:58:49.047Z,97250.09
2022-12-08T09:01:17.789Z,97245.48
2022-12-08T09:03:45.881Z,97239.73
2022-12-08T09:06:14.050Z,97235.42
2022-12-08T09:08:42.252Z,97230.00
2022-12-08T09:11:10.459Z,97224.73
2022-12-08T09:13:38.303Z,97224.52
2022-12-08T09:16:07.770Z,97229.40
2022-12-08T09:18:35.710Z,97227.82
2022-12-08T09:21:04.740Z,97223.67
2022-12-08T09:23:35.571Z,97218.56
2022-12-08T09:26:05.186Z,97220.02
2022-12-08T09:28:33.335Z,97222.11
2022-12-08T09:31:01.164Z,97222.16
2022-12-08T09:33:29.085Z,97219.66
2022-12-08T09:35:56.949Z,97215.71
2022-12-08T09:38:24.740Z,97214.36
2022-12-08T09:40:53.658Z,97209.25
2022-12-08T09:43:33.816Z,97202.23
2022-12-08T09:46:04.972Z,97203.81
2022-12-08T10:06:39.392Z,97183.52
2022-12-08T10:09:25.699Z,97190.06
2022-12-08T10:12:00.308Z,97192.25
2022-12-08T10:14:30.982Z,97183.80
2022-12-08T10:17:02.398Z,97181.81
2022-12-08T10:19:31.353Z,97180.35
2022-12-08T10:21:59.842Z,97181.13
2022-12-08T10:24:37.437Z,97180.38
2022-12-08T10:27:05.609Z,97182.32
2022-12-08T10:29:33.581Z,97178.08
2022-12-08T10:32:01.704Z,97169.20
2022-12-08T10:34:29.614Z,97161.20
2022-12-08T10:36:58.608Z,97156.35
2022-12-08T10:39:30.555Z,97148.85
2022-12-08T10:42:00.790Z,97140.89
2022-12-08T10:44:28.932Z,97142.42
2022-12-08T10:46:56.806Z,97147.77
2022-12-08T10:49:32.318Z,97155.04
2022-12-08T10:52:00.130Z,97148.95
2022-12-08T10:54:36.970Z,97139.89
2022-12-08T10:57:04.806Z,97140.16
2022-12-08T10:59:33.707Z,97133.91
2022-12-08T11:02:01.657Z,97127.10
2022-12-08T11:04:38.584Z,97125.66
2022-12-08T11:07:06.703Z,97126.13
2022-12-08T11:09:34.411Z,97125.17
2022-12-08T11:12:15.601Z,97124.11
2022-12-08T11:14:43.228Z,97119.67
2022-12-08T11:17:17.165Z,97115.13
2022-12-08T11:20:06.713Z,97118.21
2022-12-08T11:22:38.598Z,97112.73
2022-12-08T11:25:12.273Z,97104.73
2022-12-08T11:27:44.649Z,97101.05
2022-12-08T11:30:23.075Z,97096.77
2022-12-08T11:32:59.802Z,97093.10
2022-12-08T11:35:30.870Z,97096.08
2022-12-08T11:38:20.434Z,97097.36
2022-12-08T11:41:16.521Z,97095.38
2022-12-08T11:43:44.489Z,97086.09
2022-12-08T11:46:32.654Z,97080.05
2022-12-08T11:49:07.222Z,97064.58
2022-12-08T11:51:42.312Z,97062.84
2022-12-08T11:54:28.834Z,97073.86
2022-12-08T11:56:57.731Z,97072.10
2022-12-08T11:59:25.607Z,97069.15
2022-12-08T12:01:53.368Z,97063.90
2022-12-08T12:04:30.349Z,97059.20
2022-12-08T12:07:07.108Z,97059.67
2022-12-08T12:09:34.778Z,97058.61
2022-12-08T12:12:15.840Z,97058.20
2022-12-08T12:14:55.835Z,97054.52
2022-12-08T12:17:39.270Z,97041.54
2022-12-08T12:20:15.655Z,97038.78
2022-12-08T12:22:45.107Z,97043.58
2022-12-08T12:25:18.203Z,97046.54
2022-12-08T12:27:46.738Z,97039.95
2022-12-08T12:30:25.501Z,97042.30
2022-12-08T12:32:58.442Z,97051.90
2022-12-08T12:35:30.958Z,97053.72
2022-12-08T12:38:01.941Z,97053.67
2022-12-08T12:40:35.893Z,97057.66
2022-12-08T12:43:03.743Z,97056.33
2022-12-08T12:45:33.134Z,97047.77
2022-12-08T12:48:00.904Z,97041.15
2022-12-08T12:50:34.666Z,97037.45
2022-12-08T12:53:02.506Z,97034.33
2022-12-08T12:55:50.239Z,97025.64
2022-12-08T12:58:30.274Z,97027.92
2022-12-08T13:01:10.186Z,97022.16
2022-12-08T13:03:39.755Z,97023.96
2022-12-08T13:06:14.133Z,97028.19
2022-12-08T13:08:56.287Z,97026.79
2022-12-08T13:11:24.257Z,97023.11
2022-12-08T13:13:56.535Z,97017.50
2022-12-08T13:16:26.441Z,97011.21
2022-12-08T13:18:58.675Z,97001.47
2022-12-08T13:21:32.090Z,96991.04
2022-12-08T13:24:35.765Z,96992.86
2022-12-08T13:27:03.487Z,96997.91
2022-12-08T13:29:32.190Z,96989.05
2022-12-08T13:32:02.101Z,96982.58
2022-12-08T13:34:48.514Z,96975.72
2022-12-08T13:37:22.306Z,96970.55
2022-12-08T13:39:53.696Z,96973.86
2022-12-08T13:42:27.562Z,96982.67
2022-12-08T13:45:24.173Z,96986.55
2022-12-08T13:48:27.941Z,96983.25
2022-12-08T13:57:09.950Z,96976.74
2022-12-08T13:59:46.399Z,96970.65
2022-12-08T14:02:20.642Z,96970.52
2022-12-08T14:07:38.737Z,96959.15
2022-12-08T14:10:08.749Z,96954.53
2022-12-08T14:12:36.784Z,96957.54
2022-12-08T14:15:06.382Z,96959.55
2022-12-08T14:17:34.137Z,96956.19
2022-12-08T14:20:20.553Z,96962.36
2022-12-08T14:22:48.391Z,96964.27
2022-12-08T14:25:16.954Z,96964.73
2022-12-08T14:27:45.290Z,96971.85
2022-12-08T14:30:16.181Z,96975.28
2022-12-08T14:32:46.866Z,96978.17
2022-12-08T14:35:34.364Z,96976.25
2022-12-08T14:38:04.008Z,96973.33
2022-12-08T14:40:39.441Z,96967.22
2022-12-08T14:43:10.311Z,96966.10
2022-12-08T14:45:41.442Z,96960.60
2022-12-08T14:48:25.641Z,96962.27
2022-12-08T14:50:56.379Z,96962.84
2022-12-08T14:53:24.827Z,96960.42
2022-12-08T14:55:52.616Z,96956.95
2022-12-08T14:58:29.021Z,96959.05
2022-12-08T15:00:58.579Z,96956.20
2022-12-08T15:03:27.904Z,96950.73
2022-12-08T15:05:57.643Z,96947.51
2022-12-08T15:08:25.771Z,96943.36
2022-12-08T15:11:14.663Z,96937.89
2022-12-08T15:13:46.508Z,96950.45
2022-12-08T15:16:34.320Z,96960.36
2022-12-08T15:19:16.860Z,96952.91
2022-12-08T15:21:46.104Z,96942.86
2022-12-08T15:24:14.919Z,96939.66
2022-12-08T15:26:47.392Z,96937.67
2022-12-08T15:29:23.010Z,96937.77
2022-12-08T15:31:52.628Z,96940.98
2022-12-08T15:34:22.943Z,96947.96
2022-12-08T15:36:52.279Z,96937.67
2022-12-08T15:39:33.150Z,96931.62
2022-12-08T15:42:01.943Z,96927.95
2022-12-08T15:44:32.498Z,96924.86
2022-12-08T15:47:00.371Z,96925.73
2022-12-08T15:49:28.342Z,96925.75
2022-12-08T15:52:06.511Z,96924.86
2022-12-08T15:54:38.982Z,96927.06
2022-12-08T15:57:48.801Z,96924.59
2022-12-08T15:59:55.431Z,96922.23
2022-12-08T16:02:25.150Z,96917.06
2022-12-08T16:07:41.205Z,96921.52
2022-12-08T16:10:20.024Z,96922.86
2022-12-08T16:13:55.703Z,96912.69
2022-12-08T16:16:00.396Z,96905.98
2022-12-08T16:18:31.567Z,96904.11
2022-12-08T16:23:47.328Z,96898.52
2022-12-08T16:26:36.014Z,96894.42
2022-12-08T16:29:05.202Z,96888.32
2022-12-08T16:31:33.180Z,96878.91
2022-12-08T16:34:01.151Z,96876.30
2022-12-08T16:36:30.912Z,96877.48
2022-12-08T16:38:58.683Z,96875.65
2022-12-08T16:41:45.249Z,96877.24
2022-12-08T16:44:13.311Z,96874.80
2022-12-08T16:46:41.315Z,96866.83
2022-12-08T16:49:09.844Z,96865.91
2022-12-08T16:51:37.757Z,96864.92
2022-12-08T16:54:05.488Z,96868.66
2022-12-08T16:56:33.828Z,96869.58
2022-12-08T16:59:02.466Z,96866.81
2022-12-08T17:01:30.505Z,96876.30
2022-12-08T17:04:29.898Z,96887.27
2022-12-08T17:06:46.243Z,96891.14
2022-12-08T17:09:14.036Z,96889.14
2022-12-08T17:11:43.660Z,96884.47
2022-12-08T17:14:13.349Z,96884.05
2022-12-08T17:16:41.165Z,96878.92
2022-12-08T17:19:09.617Z,96872.77
2022-12-08T17:21:37.485Z,96875.52
2022-12-08T17:24:05.492Z,96877.98
2022-12-08T17:26:33.850Z,96881.38
2022-12-08T17:29:02.559Z,96879.98
2022-12-08T17:31:31.788Z,96878.90
2022-12-08T17:34:01.048Z,96875.70
2022-12-08T17:36:28.780Z,96875.95
2022-12-08T17:38:57.153Z,96875.04
2022-12-08T17:41:24.952Z,96872.98
2022-12-08T17:43:52.708Z,96875.09
2022-12-08T17:46:21.080Z,96872.86
2022-12-08T17:48:49.108Z,96872.43
2022-12-08T17:51:16.952Z,96874.91
2022-12-08T17:53:44.777Z,96870.59
2022-12-08T17:56:14.690Z,96869.48
2022-12-08T17:58:42.499Z,96867.13
2022-12-08T18:01:10.879Z,96868.64
2022-12-08T18:03:39.155Z,96865.67
2022-12-08T18:06:10.694Z,96866.82
2022-12-08T18:08:38.741Z,96861.80
2022-12-08T18:11:11.741Z,96861.20
2022-12-08T18:13:39.880Z,96855.66
2022-12-08T18:16:07.830Z,96850.84
2022-12-08T18:18:35.559Z,96848.66
2022-12-08T18:21:03.749Z,96853.67
2022-12-08T18:23:31.727Z,96857.45
2022-12-08T18:25:59.475Z,96856.20
2022-12-08T18:28:27.244Z,96852.23
2022-12-08T18:30:55.002Z,96846.20
2022-12-08T18:33:22.865Z,96844.84
2022-12-08T18:35:50.850Z,96847.82
2022-12-08T18:38:18.603Z,96845.48
2022-12-08T18:40:46.317Z,96844.15
2022-12-08T18:43:13.979Z,96846.64
2022-12-08T18:45:42.533Z,96841.10
2022-12-08T18:48:10.324Z,96833.63
